Weather reports worldwide

Advertisment
Ecija, Spain (8395): temperature & dewpoint: 17.08.2019 14:00:00 - 23.08.2019 14:00:00 (CEST)Ecija, Spain (8395): wind speed & gusts: 17.08.2019 14:00:00 - 23.08.2019 14:00:00 (CEST)Ecija, Spain (8395): wind direction: 17.08.2019 14:00:00 - 23.08.2019 14:00:00 (CEST)Ecija, Spain (8395): reduced air pressure: 17.08.2019 14:00:00 - 23.08.2019 14:00:00 (CEST)Ecija, Spain (8395): precipitation: 17.08.2019 14:00:00 - 23.08.2019 14:00:00 (CEST)
Date & Time tt [°C] td [°C] ff [km/h] ff [kn] fx [km/h] fx [kn] dd ppp [hPa] rr [mm]
23.08.2019 14:00:00 - - - - - - - - -
23.08.2019 13:00:00 31,4 18,4 16 9 27 14 E 1016,8 0,0
23.08.2019 12:00:00 29,6 18,7 14 8 24 13 E 1017,5 0,0
23.08.2019 11:00:00 27,5 19,1 10 5 17 9 E 1017,9 0,0
23.08.2019 10:00:00 25,5 18,9 7 4 14 8 E 1017,9 0,0
23.08.2019 09:00:00 23,2 17,6 5 3 7 4 ESE 1017,6 0,0
23.08.2019 08:00:00 20,7 15,4 1 0 3 2 NW 1017,4 -
23.08.2019 07:00:00 21,1 15,0 0 0 6 4 W 1016,9 0,0
23.08.2019 06:00:00 21,8 15,6 1 1 7 4 NNE 1016,9 0,0
23.08.2019 05:00:00 22,9 16,5 7 4 13 7 SW 1016,5 0,0
23.08.2019 04:00:00 23,7 17,0 8 4 11 6 WSW 1016,5 0,0
23.08.2019 03:00:00 24,4 17,1 3 2 20 11 N 1016,3 0,0
23.08.2019 02:00:00 25,6 17,8 13 7 29 16 S 1016,5 -
23.08.2019 01:00:00 25,7 17,9 19 11 27 15 SSW 1016,2 0,0
23.08.2019 00:00:00 25,7 17,6 9 5 25 13 S 1016,3 0,0
22.08.2019 23:00:00 26,7 18,0 18 10 31 17 S 1015,7 0,0
22.08.2019 22:00:00 27,6 18,0 22 12 34 18 SSW 1015,2 0,0
22.08.2019 21:00:00 29,0 18,2 23 12 35 19 S 1014,4 0,0
22.08.2019 20:00:00 31,1 18,8 24 13 37 20 SSW 1014,0 -
22.08.2019 19:00:00 32,9 19,4 23 12 32 17 S 1013,9 0,0
22.08.2019 18:00:00 34,3 20,3 19 10 31 17 S 1013,9 0,0
22.08.2019 17:00:00 34,5 20,1 13 7 32 17 S 1014,3 0,0
22.08.2019 16:00:00 34,1 21,2 6 4 32 18 SSE 1014,9 0,0
22.08.2019 15:00:00 33,0 20,9 9 5 26 14 SSE 1015,5 0,0
22.08.2019 14:00:00 32,3 21,2 14 8 28 15 SE 1016,2 -
22.08.2019 13:00:00 31,1 21,3 12 7 32 17 SE 1017,2 0,0
22.08.2019 12:00:00 29,4 20,8 13 7 28 15 SE 1017,6 0,0
22.08.2019 11:00:00 28,6 20,9 11 6 21 11 SE 1017,7 0,0
22.08.2019 10:00:00 26,3 20,2 6 3 13 7 NE 1017,8 0,0
22.08.2019 09:00:00 23,8 18,5 2 1 6 4 E 1017,6 0,0
22.08.2019 08:00:00 23,3 17,9 5 3 12 6 S 1017,2 -
22.08.2019 07:00:00 23,7 18,2 6 4 14 8 SSW 1017,0 0,0
22.08.2019 06:00:00 24,2 18,2 13 7 16 9 SSW 1016,9 0,0
22.08.2019 05:00:00 24,7 18,2 9 5 16 8 S 1017,2 0,0
22.08.2019 04:00:00 25,1 18,3 11 6 19 10 S 1017,2 0,0
22.08.2019 03:00:00 25,4 18,1 15 8 22 12 S 1017,4 0,0
22.08.2019 02:00:00 25,6 17,5 12 7 23 13 SSW 1017,5 -
22.08.2019 01:00:00 26,2 16,7 16 9 24 13 S 1017,3 0,0
22.08.2019 00:00:00 26,9 17,1 16 8 23 13 SSW 1016,6 0,0
21.08.2019 23:00:00 27,9 17,5 22 12 29 16 SSW 1015,9 0,0
21.08.2019 22:00:00 29,1 17,9 21 11 28 15 SSW 1014,8 0,0
21.08.2019 21:00:00 31,0 18,0 14 8 26 14 S 1014,0 0,0
21.08.2019 20:00:00 33,2 19,3 17 9 25 13 S 1013,3 -
21.08.2019 19:00:00 34,4 20,0 15 8 29 16 S 1013,0 0,0
21.08.2019 18:00:00 33,7 19,4 8 4 23 12 ESE 1013,3 0,0
21.08.2019 17:00:00 34,2 19,8 13 7 26 14 SSE 1013,5 0,0
21.08.2019 16:00:00 34,3 19,6 8 4 33 18 ESE 1013,8 0,0
21.08.2019 15:00:00 34,6 20,2 10 5 28 15 S 1014,5 0,0
21.08.2019 14:00:00 33,5 19,9 13 7 29 16 SSE 1015,0 -
21.08.2019 13:00:00 32,9 19,8 17 9 26 14 SE 1015,8 0,0
21.08.2019 12:00:00 30,7 19,7 11 6 30 16 SE 1016,6 0,0
21.08.2019 11:00:00 29,4 19,4 6 4 16 8 SE 1016,8 0,0
21.08.2019 10:00:00 27,2 16,2 3 2 6 3 E 1016,9 0,0
21.08.2019 09:00:00 24,0 12,6 0 0 6 3 E 1016,9 0,0
21.08.2019 08:00:00 21,2 10,4 1 0 8 4 NNW 1016,6 -
21.08.2019 07:00:00 21,0 9,9 5 3 9 5 NW 1016,7 0,0
21.08.2019 06:00:00 21,3 10,2 4 2 6 3 NNW 1016,4 0,0
21.08.2019 05:00:00 21,8 10,6 2 1 13 7 SSE 1016,2 0,0
21.08.2019 04:00:00 23,3 12,0 1 0 15 8 SSW 1016,3 0,0
21.08.2019 03:00:00 24,1 10,8 13 7 20 11 WSW 1016,3 0,0
21.08.2019 02:00:00 24,2 8,1 14 7 19 11 WSW 1016,3 -
21.08.2019 01:00:00 24,4 9,2 9 5 24 13 SSW 1016,0 0,0
21.08.2019 00:00:00 25,8 9,2 19 10 32 17 SW 1015,4 0,0
20.08.2019 23:00:00 27,5 10,3 21 11 32 18 W 1014,6 0,0
20.08.2019 22:00:00 29,9 10,4 14 7 23 12 W 1013,8 0,0
20.08.2019 21:00:00 31,9 11,1 6 3 16 8 W 1013,2 0,0
20.08.2019 20:00:00 34,6 12,8 7 4 15 8 WSW 1012,9 -
20.08.2019 19:00:00 35,1 13,3 8 4 23 12 WSW 1012,9 0,0
20.08.2019 18:00:00 35,6 14,2 6 4 17 9 SW 1013,2 0,0
20.08.2019 17:00:00 35,0 14,3 7 4 17 9 W 1013,5 0,0
20.08.2019 16:00:00 34,1 14,6 5 3 16 9 W 1014,1 0,0
20.08.2019 15:00:00 32,8 14,4 6 3 34 18 NNW 1014,7 0,0
20.08.2019 14:00:00 31,4 15,0 6 3 15 8 NNE 1015,3 -
20.08.2019 13:00:00 30,3 15,6 3 1 13 7 NW 1015,8 0,0
20.08.2019 12:00:00 27,9 14,5 3 2 9 5 SSE 1016,2 0,0
20.08.2019 11:00:00 25,1 14,2 1 0 6 3 E 1016,2 0,0
20.08.2019 10:00:00 21,5 12,3 0 0 7 4 SE 1015,9 0,0
20.08.2019 09:00:00 20,2 11,7 1 1 5 3 ESE 1015,8 0,0
20.08.2019 08:00:00 17,9 9,6 2 1 5 3 S 1015,6 -
20.08.2019 07:00:00 19,1 10,2 4 2 11 6 SSE 1015,1 0,0
20.08.2019 06:00:00 20,6 11,0 6 4 18 10 W 1014,7 0,0
20.08.2019 05:00:00 21,9 11,9 11 6 22 12 W 1014,7 0,0
20.08.2019 04:00:00 22,3 11,3 13 7 21 11 WSW 1014,3 0,0
20.08.2019 03:00:00 23,2 10,9 3 1 30 16 WNW 1014,7 0,0
20.08.2019 02:00:00 23,8 11,1 22 12 33 18 WSW 1014,5 -
20.08.2019 01:00:00 24,4 11,3 26 14 36 19 WSW 1014,3 0,0
20.08.2019 00:00:00 25,1 12,0 24 13 34 18 SW 1014,3 0,0
19.08.2019 23:00:00 26,9 12,5 16 9 29 16 SW 1013,8 0,0
19.08.2019 22:00:00 28,3 12,6 16 8 31 17 SW 1012,9 0,0
19.08.2019 21:00:00 30,9 14,9 20 11 31 17 WSW 1012,5 0,0
19.08.2019 20:00:00 33,5 18,1 18 10 34 18 WSW 1011,8 -
19.08.2019 19:00:00 35,1 18,2 18 10 34 19 WSW 1011,6 0,0
19.08.2019 18:00:00 35,9 18,0 18 10 41 22 WSW 1011,8 0,0
19.08.2019 17:00:00 35,7 17,9 14 8 61 33 W 1012,4 0,0
19.08.2019 16:00:00 35,6 18,7 12 7 30 16 W 1012,9 0,0
19.08.2019 15:00:00 34,3 17,9 9 5 25 13 W 1013,3 0,0
19.08.2019 14:00:00 33,5 18,8 9 5 20 11 W 1013,8 -
19.08.2019 13:00:00 31,9 19,5 2 1 14 7 NNW 1014,3 0,0
19.08.2019 12:00:00 29,4 18,5 6 4 18 10 S 1014,9 0,0
19.08.2019 11:00:00 27,2 17,9 6 4 13 7 SSE 1015,0 0,0
19.08.2019 10:00:00 24,1 15,3 7 4 10 6 S 1015,4 0,0
19.08.2019 09:00:00 21,3 13,3 0 0 3 2 N 1015,6 0,0
19.08.2019 08:00:00 19,2 12,0 4 2 6 3 SSW 1015,4 -
19.08.2019 07:00:00 19,2 11,4 0 0 5 3 N 1014,8 0,0
19.08.2019 06:00:00 20,0 12,2 1 1 5 3 SW 1014,7 0,0
19.08.2019 05:00:00 20,6 12,3 1 1 8 4 SSE 1014,6 0,0
19.08.2019 04:00:00 21,5 12,3 2 1 7 4 S 1014,7 0,0
19.08.2019 03:00:00 22,9 13,4 0 0 9 5 SSW 1014,8 0,0
19.08.2019 02:00:00 23,9 14,3 8 4 19 10 SW 1014,7 -
19.08.2019 01:00:00 24,6 14,0 11 6 26 14 SW 1014,6 0,0
19.08.2019 00:00:00 25,3 13,9 16 8 27 14 WSW 1014,7 0,0
18.08.2019 23:00:00 27,0 14,4 19 10 40 22 WSW 1013,9 0,0
18.08.2019 22:00:00 28,9 14,3 22 12 39 21 WSW 1012,6 0,0
18.08.2019 21:00:00 31,4 15,3 24 13 39 21 WSW 1011,7 0,0
18.08.2019 20:00:00 34,8 17,1 20 11 36 20 WSW 1011,2 -
18.08.2019 19:00:00 36,3 17,9 18 10 34 18 WSW 1010,8 0,0
18.08.2019 18:00:00 36,4 18,5 21 11 36 20 W 1011,4 0,0
18.08.2019 17:00:00 36,1 18,7 19 11 38 20 W 1011,6 0,0
18.08.2019 16:00:00 36,2 18,3 18 10 33 18 W 1012,1 0,0
18.08.2019 15:00:00 35,2 17,9 18 10 32 18 W 1012,4 0,0
18.08.2019 14:00:00 34,4 17,6 14 8 27 15 WSW 1013,1 -
18.08.2019 13:00:00 33,1 16,9 9 5 21 12 W 1013,7 0,0
18.08.2019 12:00:00 31,6 16,4 7 4 21 12 WSW 1013,8 0,0
18.08.2019 11:00:00 29,3 14,7 15 8 23 12 W 1013,8 0,0
18.08.2019 10:00:00 26,7 13,5 5 3 8 5 ESE 1013,6 0,0
18.08.2019 09:00:00 23,5 10,9 3 1 5 3 SSE 1013,3 0,0
18.08.2019 08:00:00 20,4 8,4 0 0 6 3 N 1013,0 -
18.08.2019 07:00:00 20,7 8,4 4 2 5 3 S 1012,4 0,0
18.08.2019 06:00:00 21,7 8,5 1 1 9 5 SSE 1012,2 0,0
18.08.2019 05:00:00 22,5 8,9 1 0 5 3 NE 1012,5 0,0
18.08.2019 04:00:00 23,5 9,4 2 1 10 5 NW 1012,8 0,0
18.08.2019 03:00:00 25,5 10,9 8 5 21 11 SSW 1012,9 0,0
18.08.2019 02:00:00 27,1 12,0 17 9 29 15 SW 1013,0 -
18.08.2019 01:00:00 28,7 13,0 17 9 26 14 SW 1012,9 0,0
18.08.2019 00:00:00 29,7 13,1 16 9 26 14 SW 1012,2 0,0
17.08.2019 23:00:00 31,3 13,6 16 9 28 15 SW 1011,7 0,0
17.08.2019 22:00:00 33,3 14,8 17 9 28 15 SW 1011,0 0,0
17.08.2019 21:00:00 36,3 15,4 17 9 29 16 W 1010,1 0,0
17.08.2019 20:00:00 38,6 16,3 18 10 26 14 NW 1009,6 -
17.08.2019 19:00:00 40,1 17,5 10 5 24 13 W 1009,8 0,0
17.08.2019 18:00:00 40,7 17,5 15 8 26 14 W 1010,2 0,0
17.08.2019 17:00:00 40,7 18,0 8 5 22 12 W 1010,5 0,0
17.08.2019 16:00:00 39,9 17,9 5 3 19 10 ESE 1011,3 0,0
17.08.2019 15:00:00 38,5 17,9 5 3 15 8 SE 1012,3 0,0
17.08.2019 14:00:00 37,2 17,2 8 4 16 9 SSE 1013,3 -

tt = temperature
td = dewpoint
ff = wind speed
fx = gusts
dd = wind direction
ppp = reduced air pressure
rr = precipitation

Next stations